sensor_id;sensor_type;location;lat;lon;timestamp;P1;durP1;ratioP1;P2;durP2;ratioP2
31974;SDS011;18500;43.618;1.474;2022-09-13T08:43:58;741.67;;;688.33;;
31974;SDS011;18500;43.618;1.474;2022-09-13T08:46:32;744.78;;;689.40;;
31974;SDS011;18500;43.618;1.474;2022-09-13T08:49:05;743.75;;;687.50;;
31974;SDS011;18500;43.618;1.474;2022-09-13T08:51:40;755.50;;;698.95;;
31974;SDS011;18500;43.618;1.474;2022-09-13T09:07:49;820.30;;;757.38;;
31974;SDS011;18500;43.618;1.474;2022-09-13T09:13:11;798.38;;;738.05;;
31974;SDS011;18500;43.618;1.474;2022-09-13T09:15:46;785.33;;;727.42;;
31974;SDS011;18500;43.618;1.474;2022-09-13T09:18:19;811.00;;;750.15;;
31974;SDS011;18500;43.618;1.474;2022-09-13T09:20:58;814.63;;;753.17;;
31974;SDS011;18500;43.618;1.474;2022-09-13T09:26:26;830.92;;;767.72;;
31974;SDS011;18500;43.618;1.474;2022-09-13T09:28:58;880.47;;;810.08;;
31974;SDS011;18500;43.618;1.474;2022-09-13T09:35:02;837.83;;;771.67;;
31974;SDS011;18500;43.618;1.474;2022-09-13T09:37:27;770.97;;;713.47;;
31974;SDS011;18500;43.618;1.474;2022-09-13T09:39:57;840.00;;;774.10;;
31974;SDS011;18500;43.618;1.474;2022-09-13T09:42:31;783.03;;;725.03;;
31974;SDS011;18500;43.618;1.474;2022-09-13T09:45:05;756.53;;;701.80;;
31974;SDS011;18500;43.618;1.474;2022-09-13T09:47:43;714.20;;;663.05;;
31974;SDS011;18500;43.618;1.474;2022-09-13T09:50:21;798.33;;;737.75;;
31974;SDS011;18500;43.618;1.474;2022-09-13T09:52:56;806.67;;;746.25;;
31974;SDS011;18500;43.618;1.474;2022-09-13T10:00:26;823.78;;;761.00;;
31974;SDS011;18500;43.618;1.474;2022-09-13T10:02:55;835.08;;;771.35;;
31974;SDS011;18500;43.618;1.474;2022-09-13T10:05:23;911.10;;;838.67;;
31974;SDS011;18500;43.618;1.474;2022-09-13T10:07:55;919.75;;;846.60;;
31974;SDS011;18500;43.618;1.474;2022-09-13T10:13:15;950.38;;;870.65;;
31974;SDS011;18500;43.618;1.474;2022-09-13T10:16:00;914.80;;;841.35;;
31974;SDS011;18500;43.618;1.474;2022-09-13T10:18:28;947.17;;;870.22;;
31974;SDS011;18500;43.618;1.474;2022-09-13T10:23:28;920.40;;;846.53;;
31974;SDS011;18500;43.618;1.474;2022-09-13T10:25:56;909.95;;;838.00;;
31974;SDS011;18500;43.618;1.474;2022-09-13T10:28:26;870.40;;;802.80;;
31974;SDS011;18500;43.618;1.474;2022-09-13T10:30:58;890.30;;;819.83;;
31974;SDS011;18500;43.618;1.474;2022-09-13T10:33:35;895.10;;;825.25;;
31974;SDS011;18500;43.618;1.474;2022-09-13T10:38:57;966.53;;;886.25;;
31974;SDS011;18500;43.618;1.474;2022-09-13T10:41:27;1041.40;;;950.00;;
31974;SDS011;18500;43.618;1.474;2022-09-13T10:43:57;1091.65;;;988.53;;
31974;SDS011;18500;43.618;1.474;2022-09-13T10:46:24;1088.82;;;984.03;;
31974;SDS011;18500;43.618;1.474;2022-09-13T10:48:52;1086.63;;;982.65;;
31974;SDS011;18500;43.618;1.474;2022-09-13T10:51:34;1090.65;;;986.45;;
31974;SDS011;18500;43.618;1.474;2022-09-13T10:56:45;1086.68;;;981.80;;
31974;SDS011;18500;43.618;1.474;2022-09-13T10:59:19;1103.53;;;995.15;;
31974;SDS011;18500;43.618;1.474;2022-09-13T11:13:13;1040.85;;;946.20;;
31974;SDS011;18500;43.618;1.474;2022-09-13T11:15:54;1105.57;;;994.78;;
31974;SDS011;18500;43.618;1.474;2022-09-13T11:31:37;961.67;;;871.30;;
31974;SDS011;18500;43.618;1.474;2022-09-13T11:36:54;1008.20;;;914.83;;
31974;SDS011;18500;43.618;1.474;2022-09-13T11:39:43;1009.58;;;916.05;;
31974;SDS011;18500;43.618;1.474;2022-09-13T11:42:18;950.30;;;867.72;;
31974;SDS011;18500;43.618;1.474;2022-09-13T11:53:08;1233.38;;;999.90;;
31974;SDS011;18500;43.618;1.474;2022-09-13T11:55:50;1324.22;;;999.90;;
31974;SDS011;18500;43.618;1.474;2022-09-13T11:58:45;1238.85;;;998.88;;
31974;SDS011;18500;43.618;1.474;2022-09-13T12:01:18;1161.85;;;999.90;;
31974;SDS011;18500;43.618;1.474;2022-09-13T12:03:57;1039.00;;;929.20;;
31974;SDS011;18500;43.618;1.474;2022-09-13T12:06:27;1037.20;;;926.42;;
31974;SDS011;18500;43.618;1.474;2022-09-13T12:09:16;1091.97;;;975.05;;
31974;SDS011;18500;43.618;1.474;2022-09-13T12:11:47;1136.45;;;999.90;;
31974;SDS011;18500;43.618;1.474;2022-09-13T12:14:22;1120.03;;;995.17;;
31974;SDS011;18500;43.618;1.474;2022-09-13T12:16:51;1127.43;;;997.45;;
31974;SDS011;18500;43.618;1.474;2022-09-13T12:19:30;1127.32;;;999.38;;
31974;SDS011;18500;43.618;1.474;2022-09-13T12:22:13;1132.15;;;999.25;;
31974;SDS011;18500;43.618;1.474;2022-09-13T12:24:46;1145.78;;;999.90;;
31974;SDS011;18500;43.618;1.474;2022-09-13T12:29:57;1081.95;;;965.30;;
31974;SDS011;18500;43.618;1.474;2022-09-13T12:32:31;1211.45;;;999.90;;
31974;SDS011;18500;43.618;1.474;2022-09-13T12:34:59;1190.95;;;999.90;;
31974;SDS011;18500;43.618;1.474;2022-09-13T12:37:52;1258.00;;;999.90;;
31974;SDS011;18500;43.618;1.474;2022-09-13T12:44:09;1261.40;;;999.90;;
31974;SDS011;18500;43.618;1.474;2022-09-13T12:46:31;1181.60;;;995.05;;
31974;SDS011;18500;43.618;1.474;2022-09-13T13:07:56;1253.13;;;999.90;;
31974;SDS011;18500;43.618;1.474;2022-09-13T13:10:34;1227.35;;;999.90;;
31974;SDS011;18500;43.618;1.474;2022-09-13T13:18:22;1231.40;;;999.90;;
31974;SDS011;18500;43.618;1.474;2022-09-13T13:29:09;1349.65;;;999.90;;
31974;SDS011;18500;43.618;1.474;2022-09-13T13:31:40;1363.22;;;999.90;;
31974;SDS011;18500;43.618;1.474;2022-09-13T14:00:15;1258.55;;;999.90;;
31974;SDS011;18500;43.618;1.474;2022-09-13T14:05:25;1219.68;;;999.90;;
31974;SDS011;18500;43.618;1.474;2022-09-13T14:08:21;1312.77;;;999.90;;
31974;SDS011;18500;43.618;1.474;2022-09-13T14:13:37;1240.50;;;999.90;;
31974;SDS011;18500;43.618;1.474;2022-09-13T14:21:38;1117.07;;;996.70;;
31974;SDS011;18500;43.618;1.474;2022-09-13T14:26:51;1039.95;;;941.70;;
31974;SDS011;18500;43.618;1.474;2022-09-13T14:29:21;983.55;;;893.03;;
31974;SDS011;18500;43.618;1.474;2022-09-13T14:31:51;1005.60;;;911.85;;
31974;SDS011;18500;43.618;1.474;2022-09-13T14:36:56;1015.58;;;919.75;;
31974;SDS011;18500;43.618;1.474;2022-09-13T14:39:25;1005.97;;;910.53;;
31974;SDS011;18500;43.618;1.474;2022-09-13T14:42:25;901.75;;;820.30;;
31974;SDS011;18500;43.618;1.474;2022-09-13T14:44:44;1009.22;;;913.92;;
31974;SDS011;18500;43.618;1.474;2022-09-13T14:47:26;883.70;;;804.10;;
31974;SDS011;18500;43.618;1.474;2022-09-13T14:50:03;966.42;;;877.25;;
31974;SDS011;18500;43.618;1.474;2022-09-13T14:52:35;1027.00;;;929.92;;
31974;SDS011;18500;43.618;1.474;2022-09-13T14:55:11;962.60;;;869.83;;
31974;SDS011;18500;43.618;1.474;2022-09-13T14:57:42;1138.25;;;999.63;;
31974;SDS011;18500;43.618;1.474;2022-09-13T15:00:15;1234.10;;;999.90;;
31974;SDS011;18500;43.618;1.474;2022-09-13T15:05:18;1287.05;;;999.90;;
31974;SDS011;18500;43.618;1.474;2022-09-13T15:07:46;1243.90;;;999.90;;
31974;SDS011;18500;43.618;1.474;2022-09-13T15:10:20;1234.53;;;999.90;;
31974;SDS011;18500;43.618;1.474;2022-09-13T15:12:51;1189.43;;;999.90;;
31974;SDS011;18500;43.618;1.474;2022-09-13T15:17:59;1164.05;;;999.90;;
31974;SDS011;18500;43.618;1.474;2022-09-13T15:20:29;1165.90;;;999.90;;
31974;SDS011;18500;43.618;1.474;2022-09-13T15:23:56;1163.97;;;999.90;;
31974;SDS011;18500;43.618;1.474;2022-09-13T15:26:12;1178.75;;;999.90;;
31974;SDS011;18500;43.618;1.474;2022-09-13T15:31:24;1164.75;;;999.90;;
31974;SDS011;18500;43.618;1.474;2022-09-13T15:36:43;1141.07;;;999.45;;
31974;SDS011;18500;43.618;1.474;2022-09-13T15:41:55;1159.75;;;999.90;;
31974;SDS011;18500;43.618;1.474;2022-09-13T15:44:24;1169.03;;;999.90;;
31974;SDS011;18500;43.618;1.474;2022-09-13T15:46:58;1167.63;;;999.90;;
31974;SDS011;18500;43.618;1.474;2022-09-13T15:49:29;1161.82;;;999.90;;
31974;SDS011;18500;43.618;1.474;2022-09-13T15:51:59;1173.50;;;999.90;;
31974;SDS011;18500;43.618;1.474;2022-09-13T15:54:33;1207.55;;;999.90;;
31974;SDS011;18500;43.618;1.474;2022-09-13T15:57:01;1160.05;;;999.90;;
31974;SDS011;18500;43.618;1.474;2022-09-13T15:59:31;1166.68;;;999.90;;
31974;SDS011;18500;43.618;1.474;2022-09-13T16:01:57;1153.15;;;999.90;;
31974;SDS011;18500;43.618;1.474;2022-09-13T16:04:41;1219.10;;;999.90;;
31974;SDS011;18500;43.618;1.474;2022-09-13T16:07:07;1139.13;;;999.90;;
31974;SDS011;18500;43.618;1.474;2022-09-13T16:09:33;1138.05;;;999.90;;
31974;SDS011;18500;43.618;1.474;2022-09-13T16:11:58;1121.60;;;999.90;;
31974;SDS011;18500;43.618;1.474;2022-09-13T16:14:24;1106.65;;;997.58;;
31974;SDS011;18500;43.618;1.474;2022-09-13T16:16:50;1095.68;;;992.17;;
31974;SDS011;18500;43.618;1.474;2022-09-13T16:19:19;1083.68;;;981.33;;
31974;SDS011;18500;43.618;1.474;2022-09-13T16:21:46;1118.00;;;999.90;;
31974;SDS011;18500;43.618;1.474;2022-09-13T16:24:12;1096.10;;;989.97;;
31974;SDS011;18500;43.618;1.474;2022-09-13T16:26:38;1048.93;;;954.33;;
31974;SDS011;18500;43.618;1.474;2022-09-13T16:29:05;1100.75;;;992.97;;
31974;SDS011;18500;43.618;1.474;2022-09-13T16:31:30;1060.00;;;962.05;;
31974;SDS011;18500;43.618;1.474;2022-09-13T16:33:56;1061.53;;;965.60;;
31974;SDS011;18500;43.618;1.474;2022-09-13T16:36:22;1062.45;;;965.80;;
31974;SDS011;18500;43.618;1.474;2022-09-13T16:38:48;1046.10;;;952.50;;
31974;SDS011;18500;43.618;1.474;2022-09-13T16:41:13;1028.75;;;938.85;;
31974;SDS011;18500;43.618;1.474;2022-09-13T16:43:39;1037.00;;;946.53;;
31974;SDS011;18500;43.618;1.474;2022-09-13T16:46:05;1005.72;;;921.55;;
31974;SDS011;18500;43.618;1.474;2022-09-13T16:48:32;971.88;;;893.03;;
31974;SDS011;18500;43.618;1.474;2022-09-13T16:51:05;911.65;;;840.70;;
31974;SDS011;18500;43.618;1.474;2022-09-13T16:53:33;850.13;;;787.47;;
31974;SDS011;18500;43.618;1.474;2022-09-13T16:56:04;824.33;;;763.55;;
31974;SDS011;18500;43.618;1.474;2022-09-13T16:58:37;747.42;;;694.17;;
31974;SDS011;18500;43.618;1.474;2022-09-13T17:01:05;689.75;;;642.80;;
31974;SDS011;18500;43.618;1.474;2022-09-13T17:03:35;681.05;;;634.47;;
31974;SDS011;18500;43.618;1.474;2022-09-13T17:06:06;678.92;;;629.90;;
31974;SDS011;18500;43.618;1.474;2022-09-13T17:08:34;622.67;;;581.22;;
31974;SDS011;18500;43.618;1.474;2022-09-13T17:11:12;593.10;;;553.33;;
31974;SDS011;18500;43.618;1.474;2022-09-13T17:13:39;628.50;;;586.60;;
31974;SDS011;18500;43.618;1.474;2022-09-13T17:16:06;616.67;;;575.45;;
31974;SDS011;18500;43.618;1.474;2022-09-13T17:18:43;584.97;;;546.35;;
31974;SDS011;18500;43.618;1.474;2022-09-13T17:21:09;551.72;;;515.78;;
31974;SDS011;18500;43.618;1.474;2022-09-13T17:23:34;514.42;;;480.55;;
31974;SDS011;18500;43.618;1.474;2022-09-13T17:26:01;484.85;;;454.33;;
31974;SDS011;18500;43.618;1.474;2022-09-13T17:28:26;429.90;;;403.05;;
31974;SDS011;18500;43.618;1.474;2022-09-13T17:30:52;452.25;;;422.98;;
31974;SDS011;18500;43.618;1.474;2022-09-13T17:33:18;505.20;;;472.48;;
31974;SDS011;18500;43.618;1.474;2022-09-13T17:35:43;425.00;;;397.35;;
31974;SDS011;18500;43.618;1.474;2022-09-13T17:38:09;407.95;;;381.23;;
31974;SDS011;18500;43.618;1.474;2022-09-13T17:40:35;331.52;;;310.23;;
31974;SDS011;18500;43.618;1.474;2022-09-13T17:43:01;342.40;;;320.02;;
31974;SDS011;18500;43.618;1.474;2022-09-13T17:45:27;316.55;;;296.65;;
31974;SDS011;18500;43.618;1.474;2022-09-13T17:47:54;350.90;;;329.33;;
31974;SDS011;18500;43.618;1.474;2022-09-13T17:50:21;323.90;;;303.20;;
31974;SDS011;18500;43.618;1.474;2022-09-13T17:52:48;351.40;;;329.30;;
31974;SDS011;18500;43.618;1.474;2022-09-13T17:55:15;313.33;;;294.05;;
31974;SDS011;18500;43.618;1.474;2022-09-13T17:57:41;285.35;;;267.08;;
31974;SDS011;18500;43.618;1.474;2022-09-13T18:00:07;321.67;;;300.73;;
31974;SDS011;18500;43.618;1.474;2022-09-13T18:02:36;304.52;;;285.42;;
31974;SDS011;18500;43.618;1.474;2022-09-13T18:05:01;306.60;;;287.02;;
31974;SDS011;18500;43.618;1.474;2022-09-13T18:07:28;285.55;;;267.80;;
31974;SDS011;18500;43.618;1.474;2022-09-13T18:09:53;304.83;;;285.27;;
31974;SDS011;18500;43.618;1.474;2022-09-13T18:12:19;283.20;;;265.80;;
31974;SDS011;18500;43.618;1.474;2022-09-13T18:14:45;257.85;;;241.82;;
31974;SDS011;18500;43.618;1.474;2022-09-13T18:17:11;242.63;;;227.10;;
31974;SDS011;18500;43.618;1.474;2022-09-13T18:19:38;316.55;;;296.40;;
31974;SDS011;18500;43.618;1.474;2022-09-13T18:22:05;229.85;;;214.73;;
31974;SDS011;18500;43.618;1.474;2022-09-13T18:24:31;237.82;;;222.57;;
31974;SDS011;18500;43.618;1.474;2022-09-13T18:27:00;231.35;;;216.63;;
31974;SDS011;18500;43.618;1.474;2022-09-13T18:29:26;228.05;;;212.73;;
31974;SDS011;18500;43.618;1.474;2022-09-13T18:31:53;312.48;;;291.10;;
31974;SDS011;18500;43.618;1.474;2022-09-13T18:34:19;224.25;;;209.48;;
31974;SDS011;18500;43.618;1.474;2022-09-13T18:36:45;266.23;;;248.88;;
31974;SDS011;18500;43.618;1.474;2022-09-13T18:39:13;237.70;;;221.90;;
31974;SDS011;18500;43.618;1.474;2022-09-13T18:41:41;264.52;;;246.73;;
31974;SDS011;18500;43.618;1.474;2022-09-13T18:44:10;256.52;;;239.43;;
31974;SDS011;18500;43.618;1.474;2022-09-13T18:46:36;343.23;;;319.83;;
31974;SDS011;18500;43.618;1.474;2022-09-13T18:49:02;394.33;;;365.77;;
31974;SDS011;18500;43.618;1.474;2022-09-13T18:51:30;311.40;;;290.52;;
31974;SDS011;18500;43.618;1.474;2022-09-13T18:54:01;318.98;;;298.08;;
31974;SDS011;18500;43.618;1.474;2022-09-13T18:56:28;306.90;;;286.60;;
31974;SDS011;18500;43.618;1.474;2022-09-13T18:58:55;327.20;;;306.45;;
31974;SDS011;18500;43.618;1.474;2022-09-13T19:01:23;271.67;;;254.13;;
31974;SDS011;18500;43.618;1.474;2022-09-13T19:06:27;325.60;;;304.80;;
31974;SDS011;18500;43.618;1.474;2022-09-13T19:08:55;312.23;;;292.30;;
31974;SDS011;18500;43.618;1.474;2022-09-13T19:11:22;333.60;;;311.80;;
31974;SDS011;18500;43.618;1.474;2022-09-13T19:13:49;365.48;;;341.05;;
31974;SDS011;18500;43.618;1.474;2022-09-13T19:16:16;325.05;;;304.10;;
31974;SDS011;18500;43.618;1.474;2022-09-13T19:18:43;286.80;;;268.20;;
31974;SDS011;18500;43.618;1.474;2022-09-13T19:21:13;312.92;;;292.65;;
31974;SDS011;18500;43.618;1.474;2022-09-13T19:23:41;308.10;;;288.20;;
31974;SDS011;18500;43.618;1.474;2022-09-13T19:26:10;289.73;;;270.95;;
31974;SDS011;18500;43.618;1.474;2022-09-13T19:28:38;292.38;;;273.45;;
31974;SDS011;18500;43.618;1.474;2022-09-13T19:31:09;315.83;;;295.33;;
31974;SDS011;18500;43.618;1.474;2022-09-13T19:33:36;295.92;;;276.60;;
31974;SDS011;18500;43.618;1.474;2022-09-13T19:36:04;303.33;;;284.13;;
31974;SDS011;18500;43.618;1.474;2022-09-13T19:38:32;311.92;;;291.83;;
31974;SDS011;18500;43.618;1.474;2022-09-13T19:40:59;316.88;;;296.63;;
31974;SDS011;18500;43.618;1.474;2022-09-13T19:43:28;330.25;;;309.00;;
31974;SDS011;18500;43.618;1.474;2022-09-13T19:45:59;320.95;;;300.05;;
31974;SDS011;18500;43.618;1.474;2022-09-13T19:48:26;338.47;;;316.13;;
31974;SDS011;18500;43.618;1.474;2022-09-13T19:50:52;297.48;;;278.23;;
31974;SDS011;18500;43.618;1.474;2022-09-13T19:53:18;283.30;;;264.75;;
31974;SDS011;18500;43.618;1.474;2022-09-13T19:55:44;296.48;;;277.17;;
31974;SDS011;18500;43.618;1.474;2022-09-13T19:58:14;262.73;;;245.05;;
31974;SDS011;18500;43.618;1.474;2022-09-13T20:00:41;310.60;;;290.25;;
31974;SDS011;18500;43.618;1.474;2022-09-13T20:03:07;249.05;;;232.43;;
31974;SDS011;18500;43.618;1.474;2022-09-13T20:05:34;250.77;;;233.90;;
31974;SDS011;18500;43.618;1.474;2022-09-13T20:08:00;235.32;;;219.35;;
31974;SDS011;18500;43.618;1.474;2022-09-13T20:10:27;318.02;;;297.17;;
31974;SDS011;18500;43.618;1.474;2022-09-13T20:12:54;248.75;;;232.25;;
31974;SDS011;18500;43.618;1.474;2022-09-13T20:15:20;226.98;;;211.60;;
31974;SDS011;18500;43.618;1.474;2022-09-13T20:17:46;238.32;;;221.95;;
31974;SDS011;18500;43.618;1.474;2022-09-13T20:20:12;213.18;;;199.02;;
31974;SDS011;18500;43.618;1.474;2022-09-13T20:22:38;248.25;;;231.02;;
31974;SDS011;18500;43.618;1.474;2022-09-13T20:25:04;209.73;;;195.32;;
31974;SDS011;18500;43.618;1.474;2022-09-13T20:27:30;201.57;;;187.98;;
31974;SDS011;18500;43.618;1.474;2022-09-13T20:29:57;191.18;;;178.15;;
31974;SDS011;18500;43.618;1.474;2022-09-13T20:32:23;183.38;;;170.85;;
31974;SDS011;18500;43.618;1.474;2022-09-13T20:34:48;187.23;;;174.32;;
31974;SDS011;18500;43.618;1.474;2022-09-13T20:37:15;188.15;;;174.82;;
31974;SDS011;18500;43.618;1.474;2022-09-13T20:39:41;176.68;;;164.65;;
31974;SDS011;18500;43.618;1.474;2022-09-13T20:42:07;151.95;;;141.68;;
31974;SDS011;18500;43.618;1.474;2022-09-13T20:44:33;170.02;;;158.45;;
31974;SDS011;18500;43.618;1.474;2022-09-13T20:46:59;142.73;;;132.68;;
31974;SDS011;18500;43.618;1.474;2022-09-13T20:49:25;135.38;;;124.97;;
31974;SDS011;18500;43.618;1.474;2022-09-13T20:51:52;121.45;;;112.20;;
31974;SDS011;18500;43.618;1.474;2022-09-13T20:54:18;123.47;;;114.20;;
31974;SDS011;18500;43.618;1.474;2022-09-13T20:56:43;116.82;;;107.68;;
31974;SDS011;18500;43.618;1.474;2022-09-13T20:59:10;122.70;;;113.47;;
31974;SDS011;18500;43.618;1.474;2022-09-13T21:01:36;100.90;;;92.38;;
31974;SDS011;18500;43.618;1.474;2022-09-13T21:04:02;110.40;;;101.80;;
31974;SDS011;18500;43.618;1.474;2022-09-13T21:06:29;106.13;;;98.07;;
31974;SDS011;18500;43.618;1.474;2022-09-13T21:08:56;151.57;;;140.00;;
31974;SDS011;18500;43.618;1.474;2022-09-13T21:11:26;127.10;;;117.38;;
31974;SDS011;18500;43.618;1.474;2022-09-13T21:14:02;184.65;;;171.88;;
31974;SDS011;18500;43.618;1.474;2022-09-13T21:16:30;183.32;;;170.18;;
31974;SDS011;18500;43.618;1.474;2022-09-13T21:19:02;142.18;;;131.40;;
31974;SDS011;18500;43.618;1.474;2022-09-13T21:21:29;135.00;;;124.47;;
31974;SDS011;18500;43.618;1.474;2022-09-13T21:23:57;189.65;;;175.30;;
31974;SDS011;18500;43.618;1.474;2022-09-13T21:26:26;124.97;;;115.50;;
31974;SDS011;18500;43.618;1.474;2022-09-13T21:28:53;139.07;;;128.60;;
31974;SDS011;18500;43.618;1.474;2022-09-13T21:31:21;158.65;;;146.48;;
31974;SDS011;18500;43.618;1.474;2022-09-13T21:33:52;144.70;;;133.45;;
31974;SDS011;18500;43.618;1.474;2022-09-13T21:36:19;128.38;;;118.70;;
31974;SDS011;18500;43.618;1.474;2022-09-13T21:38:45;133.75;;;123.50;;
31974;SDS011;18500;43.618;1.474;2022-09-13T21:41:12;137.88;;;126.80;;
31974;SDS011;18500;43.618;1.474;2022-09-13T21:43:39;140.07;;;129.55;;
31974;SDS011;18500;43.618;1.474;2022-09-13T21:48:34;164.90;;;152.90;;
31974;SDS011;18500;43.618;1.474;2022-09-13T21:51:04;142.38;;;130.70;;
31974;SDS011;18500;43.618;1.474;2022-09-13T21:53:35;143.60;;;132.77;;
31974;SDS011;18500;43.618;1.474;2022-09-13T21:56:06;132.93;;;123.30;;
31974;SDS011;18500;43.618;1.474;2022-09-13T21:58:33;119.72;;;109.93;;
31974;SDS011;18500;43.618;1.474;2022-09-13T22:01:21;110.10;;;101.32;;
31974;SDS011;18500;43.618;1.474;2022-09-13T22:03:46;118.30;;;109.25;;
31974;SDS011;18500;43.618;1.474;2022-09-13T22:06:13;131.05;;;121.80;;
31974;SDS011;18500;43.618;1.474;2022-09-13T22:08:41;105.82;;;97.10;;
31974;SDS011;18500;43.618;1.474;2022-09-13T22:11:12;97.88;;;89.55;;
31974;SDS011;18500;43.618;1.474;2022-09-13T22:16:13;189.55;;;175.30;;
31974;SDS011;18500;43.618;1.474;2022-09-13T22:18:42;113.60;;;104.88;;
31974;SDS011;18500;43.618;1.474;2022-09-13T22:21:09;104.32;;;96.57;;
31974;SDS011;18500;43.618;1.474;2022-09-13T22:23:37;116.85;;;107.43;;
31974;SDS011;18500;43.618;1.474;2022-09-13T22:26:07;99.57;;;90.93;;
31974;SDS011;18500;43.618;1.474;2022-09-13T22:28:34;100.50;;;91.63;;
31974;SDS011;18500;43.618;1.474;2022-09-13T22:31:34;66.47;;;60.70;;
31974;SDS011;18500;43.618;1.474;2022-09-13T22:33:54;90.93;;;82.28;;
31974;SDS011;18500;43.618;1.474;2022-09-13T22:36:20;59.55;;;54.38;;
31974;SDS011;18500;43.618;1.474;2022-09-13T22:38:48;85.68;;;78.55;;
31974;SDS011;18500;43.618;1.474;2022-09-13T22:41:16;106.40;;;97.88;;
31974;SDS011;18500;43.618;1.474;2022-09-13T22:43:44;79.82;;;72.57;;
31974;SDS011;18500;43.618;1.474;2022-09-13T22:46:14;93.45;;;85.18;;
31974;SDS011;18500;43.618;1.474;2022-09-13T22:48:42;91.70;;;83.25;;
31974;SDS011;18500;43.618;1.474;2022-09-13T22:51:08;153.75;;;142.65;;
31974;SDS011;18500;43.618;1.474;2022-09-13T22:53:36;167.77;;;156.15;;
31974;SDS011;18500;43.618;1.474;2022-09-13T22:58:28;331.92;;;309.90;;
31974;SDS011;18500;43.618;1.474;2022-09-13T23:01:00;451.10;;;420.58;;
31974;SDS011;18500;43.618;1.474;2022-09-13T23:03:34;408.02;;;380.75;;
31974;SDS011;18500;43.618;1.474;2022-09-13T23:06:00;569.22;;;528.80;;
31974;SDS011;18500;43.618;1.474;2022-09-13T23:08:26;409.70;;;382.83;;
31974;SDS011;18500;43.618;1.474;2022-09-13T23:10:52;234.88;;;218.95;;
31974;SDS011;18500;43.618;1.474;2022-09-13T23:13:18;175.80;;;163.70;;
31974;SDS011;18500;43.618;1.474;2022-09-13T23:15:44;115.85;;;106.60;;
31974;SDS011;18500;43.618;1.474;2022-09-13T23:18:10;82.20;;;74.97;;
31974;SDS011;18500;43.618;1.474;2022-09-13T23:20:36;65.82;;;59.90;;
31974;SDS011;18500;43.618;1.474;2022-09-13T23:23:02;50.15;;;45.30;;
31974;SDS011;18500;43.618;1.474;2022-09-13T23:25:28;57.33;;;51.63;;
31974;SDS011;18500;43.618;1.474;2022-09-13T23:27:55;52.08;;;47.67;;
31974;SDS011;18500;43.618;1.474;2022-09-13T23:30:21;59.67;;;54.85;;
31974;SDS011;18500;43.618;1.474;2022-09-13T23:32:47;111.90;;;103.55;;
31974;SDS011;18500;43.618;1.474;2022-09-13T23:35:14;246.02;;;229.00;;
31974;SDS011;18500;43.618;1.474;2022-09-13T23:37:40;87.25;;;79.65;;
31974;SDS011;18500;43.618;1.474;2022-09-13T23:40:05;79.82;;;72.65;;
31974;SDS011;18500;43.618;1.474;2022-09-13T23:42:31;73.10;;;66.72;;
31974;SDS011;18500;43.618;1.474;2022-09-13T23:44:57;77.78;;;71.32;;
31974;SDS011;18500;43.618;1.474;2022-09-13T23:47:22;46.72;;;42.80;;
31974;SDS011;18500;43.618;1.474;2022-09-13T23:49:48;42.42;;;38.72;;
31974;SDS011;18500;43.618;1.474;2022-09-13T23:52:14;40.60;;;37.03;;
31974;SDS011;18500;43.618;1.474;2022-09-13T23:54:39;41.75;;;37.60;;
31974;SDS011;18500;43.618;1.474;2022-09-13T23:57:05;50.45;;;46.45;;
31974;SDS011;18500;43.618;1.474;2022-09-13T23:59:31;46.05;;;42.22;;
